createdAt,value
2023-01-09T00:00:21.121Z,3.62
2023-01-09T00:05:42.992Z,3.43
2023-01-09T00:11:05.206Z,3.61
2023-01-09T00:16:27.230Z,3.78
2023-01-09T00:21:49.087Z,3.47
2023-01-09T00:27:11.010Z,3.53
2023-01-09T00:32:32.953Z,3.67
2023-01-09T00:37:55.125Z,3.68
2023-01-09T00:43:18.524Z,3.68
2023-01-09T00:48:43.208Z,3.67
2023-01-09T00:54:05.413Z,3.61
2023-01-09T00:59:28.035Z,3.75
2023-01-09T01:04:49.872Z,3.69
2023-01-09T01:10:15.201Z,3.83
2023-01-09T01:15:41.636Z,3.69
2023-01-09T01:21:10.988Z,3.44
2023-01-09T01:26:32.832Z,3.71
2023-01-09T01:31:54.993Z,3.52
2023-01-09T01:37:16.820Z,3.62
2023-01-09T01:42:49.409Z,3.63
2023-01-09T01:48:16.454Z,3.60
2023-01-09T01:53:43.042Z,3.73
2023-01-09T01:59:34.078Z,3.72
2023-01-09T02:04:58.878Z,3.79
2023-01-09T02:10:21.047Z,3.80
2023-01-09T02:16:18.643Z,3.76
2023-01-09T02:21:55.479Z,3.72
2023-01-09T02:27:29.410Z,3.74
2023-01-09T02:33:09.837Z,3.80
2023-01-09T02:39:05.511Z,3.67
2023-01-09T02:44:30.338Z,3.53
2023-01-09T02:49:57.653Z,3.74
2023-01-09T02:55:41.228Z,3.85
2023-01-09T03:01:26.294Z,3.91
2023-01-09T03:06:49.224Z,3.71
2023-01-09T03:12:13.705Z,3.93
2023-01-09T03:17:39.653Z,3.99
2023-01-09T03:23:04.286Z,3.80
2023-01-09T03:28:29.006Z,3.93
2023-01-09T03:33:51.003Z,3.87
2023-01-09T03:39:12.843Z,3.87
2023-01-09T03:44:34.663Z,3.91
2023-01-09T03:49:56.495Z,3.72
2023-01-09T03:55:18.293Z,3.77
2023-01-09T04:00:40.273Z,3.90
2023-01-09T04:06:02.091Z,3.97
2023-01-09T04:11:23.895Z,3.98
2023-01-09T04:16:45.790Z,4.02
2023-01-09T04:22:07.846Z,4.00
2023-01-09T04:27:30.017Z,3.97
2023-01-09T04:32:51.853Z,4.04
2023-01-09T04:38:13.703Z,4.11
2023-01-09T04:43:35.587Z,3.89
2023-01-09T04:48:57.489Z,3.89
2023-01-09T04:54:19.724Z,4.02
2023-01-09T04:59:41.625Z,4.01
2023-01-09T05:05:04.288Z,3.94
2023-01-09T05:10:26.120Z,4.18
2023-01-09T05:15:47.929Z,4.22
2023-01-09T05:21:09.760Z,4.19
2023-01-09T05:26:31.636Z,4.14
2023-01-09T05:31:53.549Z,4.06
2023-01-09T05:37:15.343Z,4.17
2023-01-09T05:42:37.167Z,4.17
2023-01-09T05:47:59.354Z,4.33
2023-01-09T05:53:21.167Z,4.32
2023-01-09T05:58:42.987Z,4.26
2023-01-09T06:04:04.872Z,4.24
2023-01-09T06:09:26.750Z,4.44
2023-01-09T06:14:48.634Z,4.50
2023-01-09T06:20:11.360Z,4.46
2023-01-09T06:25:33.223Z,4.35
2023-01-09T06:30:55.119Z,4.38
2023-01-09T06:36:17.066Z,4.46
2023-01-09T06:41:38.879Z,4.46
2023-01-09T06:47:01.087Z,4.38
2023-01-09T06:52:22.891Z,4.45
2023-01-09T06:57:44.796Z,4.51
2023-01-09T07:03:06.891Z,4.35
2023-01-09T07:08:28.747Z,4.49
2023-01-09T07:13:50.700Z,4.62
2023-01-09T07:19:12.546Z,4.88
2023-01-09T07:24:34.531Z,4.78
2023-01-09T07:29:56.363Z,4.84
2023-01-09T07:35:18.378Z,4.87
2023-01-09T07:40:40.214Z,4.96
2023-01-09T07:46:02.110Z,4.98
2023-01-09T07:51:23.985Z,5.10
2023-01-09T07:56:45.852Z,5.38
2023-01-09T08:02:09.508Z,5.18
2023-01-09T08:07:31.488Z,5.86
2023-01-09T08:12:53.502Z,5.70
2023-01-09T08:18:15.334Z,5.31
2023-01-09T08:23:37.850Z,5.32
2023-01-09T08:28:59.751Z,5.36
2023-01-09T08:34:21.979Z,5.85
2023-01-09T08:39:43.831Z,6.11
2023-01-09T08:45:06.269Z,6.58
2023-01-09T08:50:28.109Z,6.39
2023-01-09T08:55:50.156Z,6.18
2023-01-09T09:01:12.233Z,6.07
2023-01-09T09:06:34.561Z,5.95
2023-01-09T09:11:56.501Z,5.82
2023-01-09T09:17:18.391Z,5.75
2023-01-09T09:22:40.238Z,5.91
2023-01-09T09:28:02.141Z,5.69
2023-01-09T09:33:24.048Z,5.80
2023-01-09T09:38:46.289Z,5.91
2023-01-09T09:44:08.057Z,5.85
2023-01-09T09:49:53.448Z,5.84
2023-01-09T09:55:24.151Z,5.63
2023-01-09T10:00:46.138Z,5.83
2023-01-09T10:06:15.388Z,6.00
2023-01-09T10:11:47.350Z,5.79
2023-01-09T10:17:21.917Z,5.79
2023-01-09T10:22:52.836Z,6.12
2023-01-09T10:28:39.469Z,5.92
2023-01-09T10:34:23.082Z,5.92
2023-01-09T10:39:50.073Z,5.99
2023-01-09T10:45:24.234Z,5.77
2023-01-09T10:50:50.038Z,5.72
2023-01-09T10:56:19.668Z,5.76
2023-01-09T11:01:42.007Z,5.89
2023-01-09T11:07:15.915Z,5.78
2023-01-09T11:12:39.368Z,5.74
2023-01-09T11:18:18.361Z,5.76
2023-01-09T11:23:40.359Z,5.72
2023-01-09T11:29:06.007Z,5.82
2023-01-09T11:34:31.802Z,5.68
2023-01-09T11:39:54.907Z,5.74
2023-01-09T11:45:35.714Z,5.74
2023-01-09T11:50:59.559Z,5.77
2023-01-09T11:56:21.877Z,5.86
2023-01-09T12:02:01.625Z,5.70
2023-01-09T12:07:48.307Z,5.76
2023-01-09T12:13:28.114Z,5.90
2023-01-09T12:19:31.909Z,5.84
2023-01-09T12:24:56.522Z,5.85
2023-01-09T12:30:33.475Z,6.14
2023-01-09T12:36:29.809Z,6.01
2023-01-09T12:42:07.681Z,6.09
2023-01-09T12:47:45.800Z,6.10
2023-01-09T12:53:30.218Z,6.13
2023-01-09T12:58:57.412Z,6.21
2023-01-09T13:04:28.176Z,6.43
2023-01-09T13:09:55.859Z,6.47
2023-01-09T13:15:29.849Z,6.43
2023-01-09T13:20:55.021Z,6.30
2023-01-09T13:26:30.302Z,6.22
2023-01-09T13:32:15.763Z,6.22
2023-01-09T13:37:37.633Z,6.36
2023-01-09T13:43:06.459Z,6.25
2023-01-09T13:48:39.126Z,6.22
2023-01-09T13:54:01.055Z,6.51
2023-01-09T13:59:27.788Z,6.58
2023-01-09T14:04:49.720Z,6.58
2023-01-09T14:10:35.537Z,6.56
2023-01-09T14:16:03.474Z,6.62
2023-01-09T14:21:25.518Z,6.65
2023-01-09T14:26:58.844Z,6.76
2023-01-09T14:32:23.461Z,6.71
2023-01-09T14:37:58.785Z,6.86
2023-01-09T14:43:38.722Z,6.82
2023-01-09T14:49:12.368Z,6.85
2023-01-09T14:54:40.573Z,6.79
2023-01-09T15:00:06.459Z,6.81
2023-01-09T15:05:28.457Z,6.96
2023-01-09T15:10:52.707Z,6.92
2023-01-09T15:16:20.405Z,6.98
2023-01-09T15:21:56.977Z,6.95
2023-01-09T15:27:18.926Z,6.95
2023-01-09T15:32:40.946Z,6.84
2023-01-09T15:38:03.040Z,7.03
2023-01-09T15:43:28.065Z,7.01
2023-01-09T15:48:54.057Z,7.04
2023-01-09T15:54:20.866Z,6.94
2023-01-09T15:59:42.734Z,7.02
2023-01-09T16:05:13.009Z,7.08
2023-01-09T16:10:35.558Z,7.17
2023-01-09T16:16:01.171Z,7.13
2023-01-09T16:21:24.646Z,7.19
2023-01-09T16:26:46.645Z,7.19
2023-01-09T16:32:18.895Z,7.19
2023-01-09T16:37:40.793Z,7.25
2023-01-09T16:43:02.823Z,7.35
2023-01-09T16:48:24.668Z,7.28
2023-01-09T16:53:47.124Z,7.25
2023-01-09T16:59:13.674Z,7.28
2023-01-09T17:04:35.388Z,6.99
2023-01-09T17:09:57.259Z,7.25
2023-01-09T17:15:19.144Z,7.26
2023-01-09T17:20:43.913Z,7.16
2023-01-09T17:26:05.982Z,7.23
2023-01-09T17:31:27.940Z,7.27
2023-01-09T17:36:49.856Z,7.32
2023-01-09T17:42:11.891Z,7.31
2023-01-09T17:47:33.741Z,7.27
2023-01-09T17:52:55.650Z,7.22
2023-01-09T17:58:28.826Z,7.29
2023-01-09T18:03:50.735Z,7.40
2023-01-09T18:09:17.377Z,7.45
2023-01-09T18:14:39.460Z,7.43
2023-01-09T18:20:01.311Z,7.47
2023-01-09T18:25:23.155Z,7.49
2023-01-09T18:30:46.070Z,7.47
2023-01-09T18:36:09.479Z,7.55
2023-01-09T18:41:31.713Z,7.49
2023-01-09T18:46:53.659Z,7.57
2023-01-09T18:52:15.577Z,7.61
2023-01-09T18:57:37.662Z,7.66
2023-01-09T19:02:59.526Z,7.72
2023-01-09T19:08:21.657Z,7.73
2023-01-09T19:13:43.994Z,7.71
2023-01-09T19:19:06.334Z,7.71
2023-01-09T19:24:28.201Z,7.67
2023-01-09T19:29:50.045Z,7.70
2023-01-09T19:35:11.880Z,7.80
2023-01-09T19:40:33.704Z,7.82
2023-01-09T19:45:56.187Z,7.92
2023-01-09T19:51:20.205Z,8.04
2023-01-09T19:56:42.182Z,7.96
2023-01-09T20:02:04.055Z,8.04
2023-01-09T20:07:25.933Z,8.11
2023-01-09T20:12:47.789Z,8.12
2023-01-09T20:18:09.630Z,8.08
2023-01-09T20:23:31.520Z,8.11
2023-01-09T20:28:53.714Z,8.05
2023-01-09T20:34:16.056Z,8.10
2023-01-09T20:39:38.150Z,8.00
2023-01-09T20:45:00.124Z,8.03
2023-01-09T20:50:22.387Z,8.00
2023-01-09T20:55:44.240Z,8.02
2023-01-09T21:01:08.111Z,7.82
2023-01-09T21:06:30.144Z,7.91
2023-01-09T21:11:52.162Z,7.95
2023-01-09T21:17:14.008Z,7.95
2023-01-09T21:22:36.824Z,8.01
2023-01-09T21:27:58.699Z,8.03
2023-01-09T21:33:20.764Z,7.99
2023-01-09T21:38:43.399Z,7.79
2023-01-09T21:44:06.311Z,7.77
2023-01-09T21:49:29.340Z,7.60
2023-01-09T21:54:51.772Z,7.53
2023-01-09T22:00:14.178Z,7.62
2023-01-09T22:05:36.743Z,7.70
2023-01-09T22:10:58.599Z,7.44
2023-01-09T22:16:20.492Z,7.50
2023-01-09T22:21:42.346Z,7.46
2023-01-09T22:27:04.461Z,7.48
2023-01-09T22:32:26.324Z,7.51
2023-01-09T22:37:48.259Z,7.42
2023-01-09T22:43:10.206Z,7.36
2023-01-09T22:48:32.413Z,7.24
2023-01-09T22:53:54.358Z,7.36
2023-01-09T22:59:16.261Z,7.38
2023-01-09T23:04:38.116Z,7.41
2023-01-09T23:10:00.007Z,7.51
2023-01-09T23:15:21.850Z,7.36
2023-01-09T23:20:53.649Z,7.32
2023-01-09T23:26:15.462Z,7.34
2023-01-09T23:31:37.702Z,7.35
2023-01-09T23:36:59.575Z,7.37
2023-01-09T23:42:21.440Z,7.41
2023-01-09T23:47:43.296Z,7.47
2023-01-09T23:53:05.530Z,7.40
2023-01-09T23:58:27.495Z,7.38
